createdAt,value
2019-06-20T04:00:32.699Z,48.38
2019-06-20T04:02:32.666Z,48.56
2019-06-20T04:04:32.653Z,48.56
2019-06-20T04:06:32.647Z,49.44
2019-06-20T04:08:32.616Z,48.54
2019-06-20T04:10:32.589Z,48.54
2019-06-20T04:12:32.577Z,48.01
2019-06-20T04:14:32.552Z,48.11
2019-06-20T04:16:32.636Z,48.21
2019-06-20T04:18:32.527Z,48.29
2019-06-20T04:20:32.482Z,48.19
2019-06-20T04:22:32.459Z,48.09
2019-06-20T04:24:32.441Z,48.29
2019-06-20T04:26:32.431Z,48.09
2019-06-20T04:28:32.394Z,47.97
2019-06-20T04:30:32.400Z,48.57
2019-06-20T04:32:32.353Z,48.57
2019-06-20T04:34:32.344Z,48.07
2019-06-20T04:36:32.316Z,47.77
2019-06-20T04:38:32.282Z,47.66
2019-06-20T04:40:32.269Z,47.77
2019-06-20T04:42:32.308Z,47.56
2019-06-20T04:44:32.225Z,47.44
2019-06-20T04:46:32.216Z,47.64
2019-06-20T04:48:32.202Z,47.24
2019-06-20T04:50:32.165Z,47.64
2019-06-20T04:52:32.168Z,47.74
2019-06-20T04:54:32.121Z,47.64
2019-06-20T04:56:32.102Z,47.74
2019-06-20T04:58:32.098Z,47.94
2019-06-20T05:00:32.057Z,47.82
2019-06-20T05:02:32.030Z,47.62
2019-06-20T05:04:32.023Z,47.94
2019-06-20T05:06:31.989Z,47.54
2019-06-20T05:08:31.978Z,47.34
2019-06-20T05:10:31.963Z,47.92
2019-06-20T05:12:31.933Z,47.42
2019-06-20T05:14:31.949Z,47.02
2019-06-20T05:16:31.935Z,47.39
2019-06-20T05:18:31.874Z,47.19
2019-06-20T05:20:31.882Z,47.39
2019-06-20T05:22:31.840Z,47.07
2019-06-20T05:24:31.814Z,46.67
2019-06-20T05:26:31.783Z,46.55
2019-06-20T05:28:31.759Z,45.92
2019-06-20T05:30:31.805Z,46.53
2019-06-20T05:32:31.721Z,46.53
2019-06-20T05:34:31.693Z,46.55
2019-06-20T05:36:31.678Z,47.03
2019-06-20T05:38:31.662Z,47.13
2019-06-20T05:40:31.622Z,46.93
2019-06-20T05:42:31.622Z,46.55
2019-06-20T05:44:31.611Z,46.93
2019-06-20T05:46:31.574Z,47.03
2019-06-20T05:48:31.573Z,46.33
2019-06-20T05:50:31.530Z,46.68
2019-06-20T05:52:31.525Z,44.82
2019-06-20T05:54:31.472Z,43.15
2019-06-20T05:56:31.478Z,43.95
2019-06-20T05:58:31.432Z,44.55
2019-06-20T06:00:31.431Z,43.75
2019-06-20T06:02:31.419Z,45.07
2019-06-20T06:04:31.364Z,44.78
2019-06-20T06:06:31.390Z,45.20
2019-06-20T06:08:31.337Z,45.72
2019-06-20T06:10:31.308Z,46.24
2019-06-20T06:12:31.288Z,46.06
2019-06-20T06:14:31.607Z,46.46
2019-06-20T06:16:31.272Z,46.58
2019-06-20T06:18:31.253Z,47.28
2019-06-20T06:20:31.190Z,47.28
2019-06-20T06:22:31.185Z,46.78
2019-06-20T06:24:31.150Z,46.78
2019-06-20T06:26:31.124Z,46.78
2019-06-20T06:28:31.110Z,46.06
2019-06-20T06:30:31.095Z,46.46
2019-06-20T06:32:40.017Z,46.76
2019-06-20T06:34:32.043Z,45.74
2019-06-20T06:36:31.017Z,46.44
2019-06-20T06:38:31.059Z,45.92
2019-06-20T06:40:30.988Z,45.72
2019-06-20T06:42:30.959Z,45.84
2019-06-20T06:44:31.892Z,46.24
2019-06-20T06:46:43.754Z,46.46
2019-06-20T06:48:31.899Z,46.88
2019-06-20T06:50:30.874Z,46.86
2019-06-20T06:52:30.843Z,46.46
2019-06-20T06:54:30.857Z,46.44
2019-06-20T06:56:30.803Z,46.46
2019-06-20T06:58:30.782Z,45.96
2019-06-20T07:00:30.766Z,46.76
2019-06-20T07:02:30.744Z,46.78
2019-06-20T07:04:30.768Z,45.98
2019-06-20T07:06:30.732Z,45.98
2019-06-20T07:08:30.685Z,46.78
2019-06-20T07:10:30.662Z,46.08
2019-06-20T07:12:30.638Z,46.46
2019-06-20T07:14:30.610Z,46.14
2019-06-20T07:16:30.597Z,45.51
2019-06-20T07:18:30.577Z,44.37
2019-06-20T07:20:30.561Z,43.73
2019-06-20T07:22:30.541Z,43.37
2019-06-20T07:24:30.499Z,42.29
2019-06-20T07:26:30.482Z,38.11
2019-06-20T07:28:30.479Z,38.78
2019-06-20T07:30:30.445Z,38.43
2019-06-20T07:32:30.411Z,37.41
2019-06-20T07:34:30.431Z,36.43
2019-06-20T07:36:30.367Z,37.71
2019-06-20T07:38:30.353Z,37.85
2019-06-20T07:40:30.399Z,38.14
2019-06-20T07:42:30.442Z,38.43
2019-06-20T07:44:30.296Z,37.40
2019-06-20T07:46:30.293Z,38.81
2019-06-20T07:48:30.251Z,39.12
2019-06-20T07:50:30.221Z,40.35
2019-06-20T07:52:30.307Z,39.50
2019-06-20T07:54:30.184Z,36.39
2019-06-20T07:56:30.154Z,35.55
2019-06-20T07:58:30.215Z,35.71
2019-06-20T08:00:30.116Z,35.71
2019-06-20T08:02:30.100Z,35.38
2019-06-20T08:04:30.088Z,36.55
2019-06-20T08:06:30.065Z,36.26
2019-06-20T08:08:30.028Z,36.65
2019-06-20T08:10:30.025Z,36.75
2019-06-20T08:12:30.002Z,36.54
2019-06-20T08:14:30.137Z,36.62
2019-06-20T08:16:30.098Z,36.90
2019-06-20T08:18:30.083Z,37.67
2019-06-20T08:20:29.932Z,36.76
2019-06-20T08:22:29.898Z,36.96
2019-06-20T08:24:29.877Z,36.90
2019-06-20T08:26:29.861Z,36.69
2019-06-20T08:28:29.812Z,36.46
2019-06-20T08:30:29.824Z,37.97
2019-06-20T08:32:29.790Z,38.94
2019-06-20T08:34:29.780Z,39.88
2019-06-20T08:36:29.731Z,39.69
2019-06-20T08:38:29.722Z,40.39
2019-06-20T08:40:29.686Z,39.80
2019-06-20T08:42:29.702Z,39.70
2019-06-20T08:44:29.723Z,40.01
2019-06-20T08:46:29.628Z,40.21
2019-06-20T08:48:29.627Z,39.64
2019-06-20T08:50:29.593Z,40.70
2019-06-20T08:52:29.572Z,40.74
2019-06-20T08:54:29.582Z,41.56
2019-06-20T08:56:29.531Z,41.88
2019-06-20T08:58:29.519Z,42.10
2019-06-20T09:00:29.487Z,41.51
2019-06-20T09:02:29.532Z,39.84
2019-06-20T09:04:29.452Z,39.88
2019-06-20T09:06:29.438Z,41.00
2019-06-20T09:08:29.408Z,41.93
2019-06-20T09:10:29.379Z,40.17
2019-06-20T09:12:29.360Z,40.78
2019-06-20T09:14:29.368Z,41.43
2019-06-20T09:16:29.321Z,42.04
2019-06-20T09:18:29.302Z,41.06
2019-06-20T09:20:29.275Z,41.16
2019-06-20T09:22:29.260Z,41.02
2019-06-20T09:24:29.256Z,39.90
2019-06-20T09:26:29.217Z,40.70
2019-06-20T09:28:29.190Z,41.00
2019-06-20T09:30:29.161Z,40.72
2019-06-20T09:32:29.176Z,40.94
2019-06-20T09:34:29.224Z,41.04
2019-06-20T09:36:29.108Z,40.84
2019-06-20T09:38:29.099Z,41.69
2019-06-20T09:40:29.050Z,42.42
2019-06-20T09:42:29.043Z,42.13
2019-06-20T09:44:29.035Z,42.22
2019-06-20T09:46:29.034Z,42.24
2019-06-20T09:48:28.991Z,42.02
2019-06-20T09:50:28.980Z,41.17
2019-06-20T09:52:28.944Z,40.05
2019-06-20T09:54:28.918Z,41.25
2019-06-20T09:56:28.894Z,41.08
2019-06-20T09:58:28.889Z,41.71
2019-06-20T10:00:28.960Z,41.43
2019-06-20T10:02:28.835Z,42.24
2019-06-20T10:04:28.804Z,43.10
2019-06-20T10:06:28.791Z,42.99
2019-06-20T10:08:28.764Z,42.21
2019-06-20T10:10:28.763Z,41.97
2019-06-20T10:12:28.747Z,41.33
2019-06-20T10:14:28.705Z,40.70
2019-06-20T10:16:36.537Z,39.78
2019-06-20T10:18:29.655Z,40.33
2019-06-20T10:20:28.623Z,39.60
2019-06-20T10:22:28.651Z,38.56
2019-06-20T10:24:28.614Z,39.01
2019-06-20T10:26:28.574Z,38.29
2019-06-20T10:28:28.610Z,37.35
2019-06-20T10:30:28.547Z,37.32
2019-06-20T10:32:28.510Z,36.49
2019-06-20T10:34:31.080Z,37.91
2019-06-20T10:36:29.820Z,38.01
2019-06-20T10:38:28.600Z,38.10
2019-06-20T10:40:28.565Z,39.00
2019-06-20T10:42:28.578Z,38.53
2019-06-20T10:44:28.571Z,39.14
2019-06-20T10:46:28.475Z,39.88
2019-06-20T10:48:28.533Z,40.58
2019-06-20T10:50:28.881Z,40.13
2019-06-20T10:52:28.502Z,40.01
2019-06-20T10:54:28.415Z,40.09
2019-06-20T10:56:28.259Z,39.82
2019-06-20T10:58:28.270Z,39.72
2019-06-20T11:00:31.169Z,39.53
2019-06-20T11:02:28.182Z,38.70
2019-06-20T11:04:28.212Z,39.37
2019-06-20T11:06:28.159Z,39.25
2019-06-20T11:08:28.145Z,39.96
2019-06-20T11:10:28.098Z,40.39
2019-06-20T11:12:39.992Z,40.11
2019-06-20T11:14:29.107Z,40.92
2019-06-20T11:16:28.044Z,41.14
2019-06-20T11:18:28.016Z,41.16
2019-06-20T11:20:28.023Z,41.56
2019-06-20T11:22:27.975Z,41.69
2019-06-20T11:24:27.969Z,41.22
2019-06-20T11:26:27.948Z,41.59
2019-06-20T11:28:27.952Z,40.88
2019-06-20T11:30:27.899Z,40.06
2019-06-20T11:32:27.907Z,40.11
2019-06-20T11:34:27.871Z,39.69
2019-06-20T11:36:27.845Z,38.76
2019-06-20T11:38:27.832Z,38.96
2019-06-20T11:40:27.791Z,39.25
2019-06-20T11:42:27.826Z,39.15
2019-06-20T11:44:27.809Z,39.64
2019-06-20T11:46:27.727Z,39.56
2019-06-20T11:48:27.721Z,39.86
2019-06-20T11:50:27.713Z,40.16
2019-06-20T11:52:27.685Z,39.94
2019-06-20T11:54:27.640Z,39.76
2019-06-20T11:56:28.422Z,39.49
2019-06-20T11:58:27.596Z,40.61
2019-06-20T12:00:27.596Z,40.72
2019-06-20T12:02:27.567Z,41.43
2019-06-20T12:04:27.556Z,41.67
2019-06-20T12:06:27.545Z,42.30
2019-06-20T12:08:27.522Z,41.73
2019-06-20T12:10:27.548Z,42.44
2019-06-20T12:12:27.492Z,42.44
2019-06-20T12:14:27.445Z,41.53
2019-06-20T12:16:27.428Z,40.27
2019-06-20T12:18:27.425Z,39.11
2019-06-20T12:20:27.365Z,39.47
2019-06-20T12:22:27.367Z,37.65
2019-06-20T12:24:27.420Z,38.34
2019-06-20T12:26:27.299Z,39.54
2019-06-20T12:28:27.320Z,38.78
2019-06-20T12:30:27.302Z,40.27
2019-06-20T12:32:27.251Z,40.00
2019-06-20T12:34:27.225Z,39.70
2019-06-20T12:36:27.218Z,40.00
2019-06-20T12:38:27.199Z,40.51
2019-06-20T12:40:27.166Z,40.70
2019-06-20T12:42:27.163Z,40.82
2019-06-20T12:44:27.119Z,39.62
2019-06-20T12:46:27.091Z,39.17
2019-06-20T12:48:27.108Z,39.25
2019-06-20T12:50:27.059Z,39.23
2019-06-20T12:52:27.038Z,38.94
2019-06-20T12:54:30.093Z,39.33
2019-06-20T12:56:26.993Z,39.72
2019-06-20T12:58:27.026Z,40.35
2019-06-20T13:00:26.973Z,40.47
2019-06-20T13:02:26.921Z,40.92
2019-06-20T13:04:26.914Z,42.06
2019-06-20T13:06:26.887Z,42.71
2019-06-20T13:08:26.863Z,43.66
2019-06-20T13:10:26.862Z,44.61
2019-06-20T13:12:26.850Z,45.47
2019-06-20T13:14:26.792Z,45.61
2019-06-20T13:16:26.774Z,46.45
2019-06-20T13:18:26.773Z,46.30
2019-06-20T13:20:26.743Z,47.43
2019-06-20T13:22:26.704Z,46.86
2019-06-20T13:24:26.703Z,47.87
2019-06-20T13:26:26.664Z,47.17
2019-06-20T13:28:26.687Z,47.50
2019-06-20T13:30:26.629Z,47.92
2019-06-20T13:32:26.629Z,47.64
2019-06-20T13:34:26.579Z,47.94
2019-06-20T13:36:26.621Z,47.27
2019-06-20T13:38:26.544Z,48.08
2019-06-20T13:40:26.572Z,47.81
2019-06-20T13:42:26.517Z,47.21
2019-06-20T13:44:26.515Z,46.86
2019-06-20T13:46:26.465Z,47.88
2019-06-20T13:48:26.431Z,47.71
2019-06-20T13:50:26.442Z,47.60
2019-06-20T13:52:26.421Z,47.92
2019-06-20T13:54:26.367Z,48.32
2019-06-20T13:56:26.395Z,47.83
2019-06-20T13:58:26.364Z,46.92
2019-06-20T14:00:26.353Z,46.83
2019-06-20T14:02:26.276Z,46.91
2019-06-20T14:04:26.282Z,45.59
2019-06-20T14:06:26.252Z,45.34
2019-06-20T14:08:26.233Z,44.90
2019-06-20T14:10:26.185Z,43.76
2019-06-20T14:12:26.207Z,42.83
2019-06-20T14:14:26.170Z,42.19
2019-06-20T14:16:26.115Z,42.66
2019-06-20T14:18:26.112Z,42.23
2019-06-20T14:20:26.114Z,41.08
2019-06-20T14:22:26.065Z,41.36
2019-06-20T14:24:26.085Z,41.46
2019-06-20T14:26:26.059Z,41.16
2019-06-20T14:28:26.042Z,41.44
2019-06-20T14:30:26.009Z,41.44
2019-06-20T14:32:26.039Z,42.05
2019-06-20T14:34:25.944Z,42.68
2019-06-20T14:36:25.960Z,42.50
2019-06-20T14:38:25.891Z,43.02
2019-06-20T14:40:25.874Z,42.92
2019-06-20T14:42:25.857Z,43.02
2019-06-20T14:44:25.829Z,43.64
2019-06-20T14:46:25.859Z,44.27
2019-06-20T14:48:25.783Z,44.89
2019-06-20T14:50:25.866Z,45.43
2019-06-20T14:52:25.753Z,46.05
2019-06-20T14:54:25.743Z,46.37
2019-06-20T14:56:25.695Z,46.89
2019-06-20T14:58:25.696Z,46.72
2019-06-20T15:00:25.656Z,47.03
2019-06-20T15:02:38.031Z,47.24
2019-06-20T15:04:26.612Z,47.26
2019-06-20T15:06:25.589Z,46.76
2019-06-20T15:08:25.582Z,46.84
2019-06-20T15:10:25.577Z,46.84
2019-06-20T15:12:25.539Z,45.92
2019-06-20T15:14:25.517Z,46.00
2019-06-20T15:16:25.555Z,46.00
2019-06-20T15:18:25.508Z,44.98
2019-06-20T15:20:25.468Z,44.98
2019-06-20T15:22:25.419Z,45.67
2019-06-20T15:24:25.402Z,46.00
2019-06-20T15:26:25.384Z,45.67
2019-06-20T15:28:25.343Z,45.50
2019-06-20T15:30:25.389Z,45.70
2019-06-20T15:32:25.322Z,45.60
2019-06-20T15:34:25.296Z,46.09
2019-06-20T15:36:25.265Z,45.79
2019-06-20T15:38:25.278Z,46.09
2019-06-20T15:40:25.219Z,45.60
2019-06-20T15:42:25.219Z,45.87
2019-06-20T15:44:25.225Z,46.17
2019-06-20T15:46:25.169Z,46.17
2019-06-20T15:48:25.131Z,44.96
2019-06-20T15:50:25.132Z,44.93
2019-06-20T15:52:25.111Z,45.11
2019-06-20T15:54:25.091Z,44.62
2019-06-20T15:56:25.047Z,44.79
2019-06-20T15:58:25.085Z,44.48
2019-06-20T16:00:25.061Z,44.89
2019-06-20T16:02:25.079Z,44.48
2019-06-20T16:04:24.968Z,44.37
2019-06-20T16:06:24.953Z,44.48
2019-06-20T16:08:24.937Z,44.25
2019-06-20T16:10:24.914Z,44.06
2019-06-20T16:12:24.931Z,44.77
2019-06-20T16:14:24.862Z,44.45
2019-06-20T16:16:24.887Z,44.06
2019-06-20T16:18:24.830Z,44.73
2019-06-20T16:20:24.806Z,43.62
2019-06-20T16:22:24.785Z,43.70
2019-06-20T16:24:24.750Z,42.46
2019-06-20T16:26:24.770Z,42.66
2019-06-20T16:28:24.723Z,43.26
2019-06-20T16:30:24.702Z,43.20
2019-06-20T16:32:24.687Z,44.39
2019-06-20T16:34:24.688Z,44.21
2019-06-20T16:36:24.620Z,44.60
2019-06-20T16:38:24.610Z,45.03
2019-06-20T16:40:24.610Z,45.12
2019-06-20T16:42:24.576Z,44.53
2019-06-20T16:44:24.547Z,44.31
2019-06-20T16:46:24.562Z,44.39
2019-06-20T16:48:24.494Z,44.37
2019-06-20T16:50:24.516Z,44.29
2019-06-20T16:52:24.470Z,44.51
2019-06-20T16:54:24.449Z,45.00
2019-06-20T16:56:24.470Z,45.12
2019-06-20T16:58:24.463Z,46.26
2019-06-20T17:00:24.367Z,46.48
2019-06-20T17:02:24.405Z,45.98
2019-06-20T17:04:24.335Z,46.28
2019-06-20T17:06:24.304Z,46.33
2019-06-20T17:08:24.291Z,47.27
2019-06-20T17:10:24.294Z,47.49
2019-06-20T17:12:24.246Z,47.49
2019-06-20T17:14:24.240Z,48.11
2019-06-20T17:16:24.295Z,48.21
2019-06-20T17:18:24.174Z,47.81
2019-06-20T17:20:24.197Z,47.31
2019-06-20T17:22:24.169Z,47.41
2019-06-20T17:24:24.159Z,47.61
2019-06-20T17:26:24.092Z,47.51
2019-06-20T17:28:24.065Z,47.51
2019-06-20T17:30:24.073Z,47.71
2019-06-20T17:32:24.023Z,48.53
2019-06-20T17:34:24.045Z,48.23
2019-06-20T17:36:23.984Z,48.05
2019-06-20T17:38:23.972Z,48.38
2019-06-20T17:40:23.952Z,47.88
2019-06-20T17:42:23.916Z,48.70
2019-06-20T17:44:26.710Z,49.72
2019-06-20T17:46:23.885Z,48.93
2019-06-20T17:48:23.877Z,48.93
2019-06-20T17:50:25.874Z,49.35
2019-06-20T17:52:23.807Z,49.87
2019-06-20T17:54:23.782Z,49.77
2019-06-20T17:56:23.779Z,49.40
2019-06-20T17:58:23.739Z,49.69
2019-06-20T18:00:23.722Z,50.22
2019-06-20T18:02:23.707Z,50.22
2019-06-20T18:04:26.659Z,50.14
2019-06-20T18:06:23.667Z,50.04
2019-06-20T18:08:23.665Z,50.74
2019-06-20T18:10:23.626Z,50.07
2019-06-20T18:12:23.591Z,50.37
2019-06-20T18:14:23.568Z,50.46
2019-06-20T18:16:25.280Z,50.07
2019-06-20T18:18:23.542Z,49.89
2019-06-20T18:20:23.518Z,50.49
2019-06-20T18:22:23.506Z,50.51
2019-06-20T18:24:23.471Z,51.12
2019-06-20T18:26:23.490Z,50.62
2019-06-20T18:28:23.452Z,51.14
2019-06-20T18:30:23.426Z,50.94
2019-06-20T18:32:23.397Z,50.74
2019-06-20T18:34:29.887Z,51.04
2019-06-20T18:36:24.327Z,50.26
2019-06-20T18:38:23.347Z,50.34
2019-06-20T18:40:23.315Z,50.34
2019-06-20T18:42:23.280Z,50.46
2019-06-20T18:44:23.246Z,50.04
2019-06-20T18:46:23.305Z,49.84
2019-06-20T18:48:23.226Z,49.93
2019-06-20T18:50:23.276Z,50.24
2019-06-20T18:52:23.157Z,50.36
2019-06-20T18:54:23.158Z,50.36
2019-06-20T18:56:23.123Z,50.16
2019-06-20T18:58:23.100Z,49.86
2019-06-20T19:00:34.110Z,51.09
2019-06-20T19:02:24.081Z,50.86
2019-06-20T19:04:23.111Z,50.18
2019-06-20T19:06:35.595Z,50.29
2019-06-20T19:08:24.037Z,50.21
2019-06-20T19:10:23.000Z,51.21
2019-06-20T19:12:22.979Z,50.66
2019-06-20T19:14:22.936Z,51.49
2019-06-20T19:16:22.916Z,52.09
2019-06-20T19:18:23.329Z,51.91
2019-06-20T19:20:22.901Z,51.73
2019-06-20T19:22:22.874Z,52.24
2019-06-20T19:24:22.837Z,52.64
2019-06-20T19:26:22.814Z,52.57
2019-06-20T19:28:22.791Z,51.76
2019-06-20T19:30:22.769Z,51.76
2019-06-20T19:32:22.734Z,51.64
2019-06-20T19:34:22.748Z,52.06
2019-06-20T19:36:22.710Z,52.17
2019-06-20T19:38:22.688Z,52.06
2019-06-20T19:40:22.650Z,52.17
2019-06-20T19:42:22.712Z,52.17
2019-06-20T19:44:22.619Z,51.76
2019-06-20T19:46:22.653Z,51.79
2019-06-20T19:48:22.616Z,52.19
2019-06-20T19:50:22.583Z,51.79
2019-06-20T19:52:22.540Z,52.19
2019-06-20T19:54:22.510Z,51.79
2019-06-20T19:56:22.527Z,52.49
2019-06-20T19:58:22.576Z,52.59
2019-06-20T20:00:22.455Z,51.99
2019-06-20T20:02:22.442Z,52.72
2019-06-20T20:04:22.451Z,52.51
2019-06-20T20:06:22.372Z,51.31
2019-06-20T20:08:22.360Z,52.62
2019-06-20T20:10:22.357Z,52.44
2019-06-20T20:12:22.312Z,52.31
2019-06-20T20:14:22.302Z,51.93
2019-06-20T20:16:22.282Z,52.34
2019-06-20T20:18:22.245Z,52.04
2019-06-20T20:20:22.236Z,51.96
2019-06-20T20:22:22.228Z,52.26
2019-06-20T20:24:22.192Z,52.36
2019-06-20T20:26:22.206Z,52.26
2019-06-20T20:28:22.152Z,52.26
2019-06-20T20:30:22.149Z,52.36
2019-06-20T20:32:22.099Z,52.26
2019-06-20T20:34:22.095Z,52.59
2019-06-20T20:36:25.292Z,52.47
2019-06-20T20:38:22.032Z,52.69
2019-06-20T20:40:22.014Z,52.69
2019-06-20T20:42:21.999Z,52.59
2019-06-20T20:44:21.968Z,52.69
2019-06-20T20:46:21.985Z,52.29
2019-06-20T20:48:21.921Z,53.02
2019-06-20T20:50:21.903Z,52.61
2019-06-20T20:52:21.949Z,52.82
2019-06-20T20:54:21.862Z,52.92
2019-06-20T20:56:21.873Z,53.52
2019-06-20T20:58:21.849Z,53.05
2019-06-20T21:00:21.813Z,52.94
2019-06-20T21:02:21.774Z,53.25
2019-06-20T21:04:21.796Z,52.94
2019-06-20T21:06:21.748Z,53.27
2019-06-20T21:08:21.727Z,53.38
2019-06-20T21:10:21.696Z,53.27
2019-06-20T21:12:21.676Z,52.76
2019-06-20T21:14:21.649Z,53.38
2019-06-20T21:16:21.637Z,53.17
2019-06-20T21:18:21.618Z,53.27
2019-06-20T21:20:21.610Z,52.97
2019-06-20T21:22:21.582Z,53.07
2019-06-20T21:24:21.535Z,53.07
2019-06-20T21:26:21.592Z,52.76
2019-06-20T21:28:21.547Z,52.74
2019-06-20T21:30:21.484Z,52.94
2019-06-20T21:32:28.995Z,52.03
2019-06-20T21:34:21.425Z,52.03
2019-06-20T21:36:21.456Z,52.56
2019-06-20T21:38:21.399Z,52.44
2019-06-20T21:40:21.378Z,52.16
2019-06-20T21:42:21.355Z,52.16
2019-06-20T21:44:21.330Z,53.27
2019-06-20T21:46:21.322Z,52.23
2019-06-20T21:48:21.281Z,52.76
2019-06-20T21:50:21.260Z,52.36
2019-06-20T21:52:21.265Z,52.26
2019-06-20T21:54:28.741Z,52.56
2019-06-20T21:56:21.190Z,52.76
2019-06-20T21:58:21.199Z,52.69
2019-06-20T22:00:21.151Z,52.89
2019-06-20T22:02:21.165Z,52.79
2019-06-20T22:04:21.133Z,52.59
2019-06-20T22:06:24.024Z,52.48
2019-06-20T22:08:21.078Z,52.89
2019-06-20T22:10:21.056Z,52.79
2019-06-20T22:12:21.028Z,52.81
2019-06-20T22:14:21.030Z,52.72
2019-06-20T22:16:21.000Z,52.89
2019-06-20T22:18:20.955Z,52.51
2019-06-20T22:20:20.946Z,52.31
2019-06-20T22:22:20.918Z,52.61
2019-06-20T22:24:20.941Z,52.81
2019-06-20T22:26:20.874Z,52.81
2019-06-20T22:28:20.851Z,52.69
2019-06-20T22:30:20.844Z,52.51
2019-06-20T22:32:20.872Z,52.59
2019-06-20T22:34:20.819Z,52.61
2019-06-20T22:36:20.771Z,52.72
2019-06-20T22:38:20.765Z,52.59
2019-06-20T22:40:20.723Z,52.92
2019-06-20T22:42:20.753Z,52.81
2019-06-20T22:44:20.694Z,52.61
2019-06-20T22:46:20.681Z,52.51
2019-06-20T22:48:20.659Z,52.41
2019-06-20T22:50:20.638Z,52.31
2019-06-20T22:52:20.595Z,52.41
2019-06-20T22:54:20.609Z,52.81
2019-06-20T22:56:20.554Z,52.51
2019-06-20T22:58:20.522Z,52.41
2019-06-20T23:00:20.515Z,52.41
2019-06-20T23:02:20.490Z,52.41
2019-06-20T23:04:20.462Z,52.21
2019-06-20T23:06:20.452Z,52.41
2019-06-20T23:08:20.420Z,52.31
2019-06-20T23:10:20.479Z,52.74
2019-06-20T23:12:20.388Z,52.81
2019-06-20T23:14:20.386Z,52.64
2019-06-20T23:16:20.333Z,52.61
2019-06-20T23:18:20.325Z,52.61
2019-06-20T23:20:20.295Z,52.51
2019-06-20T23:22:20.266Z,52.11
2019-06-20T23:24:20.256Z,52.31
2019-06-20T23:26:20.220Z,52.11
2019-06-20T23:28:20.216Z,52.21
